CLA6 weather

Lancaster Airpark
Bainsville, Ontario, Canada

Public forecast

Using degrees Celsius for public forecast. Weather courtesy of forecast.io.

Closest aviation weather report (METAR) to Lancaster Airpark

Closest report is Massena International Richards Field, 26.0 nm (48.1 km) SW. Retrieved 2020/05/26 19:53 UTC (20 minutes ago):

KMSS 261953Z AUTO 26010G17KT 10SM SCT060 33/18 A3006 RMK AO2 SLP176 T03280183

Closest aviation forecast (TAF) to Lancaster Airpark

Closest forecast is Massena International Richards Field, 26.0 nm (48.1 km) SW. Retrieved 2020/05/26 18:22 UTC (2 hours ago):

TAF KMSS 261720Z 2618/2718 25010G18KT P6SM SKC FM270000 25005KT P6SM FEW150 FM271400 23008KT P6SM FEW120